Kezdőlap
METAR-TAF:

METAR-TAF

Repülőterek :

Zonguldak, Törökország

földrajzi szélesség: 41-27N, földrajzi hosszúság: 031-48E, magasság: 136 m

Jelenlegi meteorológiai megfigyelések

A jelentés 8 órával és 24 perccel ezelõtt készült, 13:50 UTC
Északi szél 10 kt
Hőmérséklet 17°C
Páratartalom 72%
Légköri nyomás 1021 hPa
Látótávolság 10 km, vagy több
felhőtlen 1500 m magasságban, és nincs gomolyfelhõ

METAR: LTAS 181350Z 35010KT CAVOK 17/12 Q1021

Idő: 01:14 (22:14 UTC)

Előrejelzés

A jelentés 8 órával és 34 perccel ezelõtt készült, 13:40 UTC
Az előrejelzés 18-én 15 óra UTC és 18-én 24 óra UTC között érvényes
Különbözõ irányokból fújó szél 2 kt
Látótávolság 10 km, vagy több
felhőtlen 1500 m magasságban, és nincs gomolyfelhõ

TAF: LTAS 181340Z 1815/1824 VRB02KT CAVOK

Meteorológiai megfigyelések és előrejelzések több, mint 4000 repülőtéren (METAR és TAF jelentéseket).

A térképen piros és sárga pontok jelzik az elérhető meteorológiai állomásokat.

Mozgassa az egeret a pont fölött, hogy megjelenjen az állomás neve.

Azután kattintson az időjárási megfigyelések és előrejelzések megtekintéséhez.

A térkép megváltoztatása: kattintson a fekete keresztel jelölt zöld gombra ráközelítéshez, a vonallal jelölt zöld gombra távolításhoz, vagy a zöld nyilakra a szomszédos térképek eléréséhez.


METAR-TAF: